sensor_id;sensor_type;location;lat;lon;timestamp;temperature;humidity
42227;DHT22;27892;52.378;13.122;2023-05-21T00:00:03;19.80;60.20
42227;DHT22;27892;52.378;13.122;2023-05-21T00:02:53;19.80;60.40
42227;DHT22;27892;52.378;13.122;2023-05-21T00:05:42;19.80;60.40
42227;DHT22;27892;52.378;13.122;2023-05-21T00:08:28;19.70;60.70
42227;DHT22;27892;52.378;13.122;2023-05-21T00:11:12;19.70;60.90
42227;DHT22;27892;52.378;13.122;2023-05-21T00:13:57;19.60;61.10
42227;DHT22;27892;52.378;13.122;2023-05-21T00:16:41;19.50;61.80
42227;DHT22;27892;52.378;13.122;2023-05-21T00:19:28;19.50;62.00
42227;DHT22;27892;52.378;13.122;2023-05-21T00:22:12;19.60;61.80
42227;DHT22;27892;52.378;13.122;2023-05-21T00:24:57;19.50;61.90
42227;DHT22;27892;52.378;13.122;2023-05-21T00:27:41;19.50;62.30
42227;DHT22;27892;52.378;13.122;2023-05-21T00:30:26;19.40;63.00
42227;DHT22;27892;52.378;13.122;2023-05-21T00:33:10;19.40;62.80
42227;DHT22;27892;52.378;13.122;2023-05-21T00:35:56;19.30;63.00
42227;DHT22;27892;52.378;13.122;2023-05-21T00:38:42;19.40;63.00
42227;DHT22;27892;52.378;13.122;2023-05-21T00:41:29;19.40;62.80
42227;DHT22;27892;52.378;13.122;2023-05-21T00:44:14;19.40;62.70
42227;DHT22;27892;52.378;13.122;2023-05-21T00:47:02;19.40;63.00
42227;DHT22;27892;52.378;13.122;2023-05-21T00:49:47;19.40;63.10
42227;DHT22;27892;52.378;13.122;2023-05-21T00:52:32;19.40;63.20
42227;DHT22;27892;52.378;13.122;2023-05-21T00:55:16;19.30;63.10
42227;DHT22;27892;52.378;13.122;2023-05-21T00:58:00;19.40;63.10
42227;DHT22;27892;52.378;13.122;2023-05-21T01:00:44;19.30;62.90
42227;DHT22;27892;52.378;13.122;2023-05-21T01:03:29;19.30;62.90
42227;DHT22;27892;52.378;13.122;2023-05-21T01:06:13;19.20;63.60
42227;DHT22;27892;52.378;13.122;2023-05-21T01:08:59;19.20;63.70
42227;DHT22;27892;52.378;13.122;2023-05-21T01:11:50;19.10;63.90
42227;DHT22;27892;52.378;13.122;2023-05-21T01:14:35;19.10;64.10
42227;DHT22;27892;52.378;13.122;2023-05-21T01:17:21;19.10;64.30
42227;DHT22;27892;52.378;13.122;2023-05-21T01:20:07;19.10;64.10
42227;DHT22;27892;52.378;13.122;2023-05-21T01:22:55;19.00;64.10
42227;DHT22;27892;52.378;13.122;2023-05-21T01:25:40;19.00;64.30
42227;DHT22;27892;52.378;13.122;2023-05-21T01:28:25;19.00;64.70
42227;DHT22;27892;52.378;13.122;2023-05-21T01:31:35;19.00;64.50
42227;DHT22;27892;52.378;13.122;2023-05-21T01:34:27;18.90;65.00
42227;DHT22;27892;52.378;13.122;2023-05-21T01:37:25;18.90;65.00
42227;DHT22;27892;52.378;13.122;2023-05-21T01:40:39;18.80;65.60
42227;DHT22;27892;52.378;13.122;2023-05-21T01:43:26;18.80;66.00
42227;DHT22;27892;52.378;13.122;2023-05-21T01:46:16;18.70;65.50
42227;DHT22;27892;52.378;13.122;2023-05-21T01:49:01;18.70;65.30
42227;DHT22;27892;52.378;13.122;2023-05-21T01:51:46;18.60;65.40
42227;DHT22;27892;52.378;13.122;2023-05-21T01:54:31;18.50;65.40
42227;DHT22;27892;52.378;13.122;2023-05-21T01:57:16;18.40;65.50
42227;DHT22;27892;52.378;13.122;2023-05-21T02:00:01;18.40;65.50
42227;DHT22;27892;52.378;13.122;2023-05-21T02:02:46;18.30;65.50
42227;DHT22;27892;52.378;13.122;2023-05-21T02:05:30;18.20;65.70
42227;DHT22;27892;52.378;13.122;2023-05-21T02:08:15;18.10;66.00
42227;DHT22;27892;52.378;13.122;2023-05-21T02:10:59;18.10;66.00
42227;DHT22;27892;52.378;13.122;2023-05-21T02:13:43;18.00;66.00
42227;DHT22;27892;52.378;13.122;2023-05-21T02:16:29;17.90;66.10
42227;DHT22;27892;52.378;13.122;2023-05-21T02:19:13;17.90;66.20
42227;DHT22;27892;52.378;13.122;2023-05-21T02:21:57;17.80;66.40
42227;DHT22;27892;52.378;13.122;2023-05-21T02:24:41;17.70;66.40
42227;DHT22;27892;52.378;13.122;2023-05-21T02:27:26;17.60;66.50
42227;DHT22;27892;52.378;13.122;2023-05-21T02:30:13;17.50;66.70
42227;DHT22;27892;52.378;13.122;2023-05-21T02:32:57;17.50;66.90
42227;DHT22;27892;52.378;13.122;2023-05-21T02:35:41;17.40;66.70
42227;DHT22;27892;52.378;13.122;2023-05-21T02:38:27;17.40;67.50
42227;DHT22;27892;52.378;13.122;2023-05-21T02:41:11;17.40;67.80
42227;DHT22;27892;52.378;13.122;2023-05-21T02:43:55;17.50;68.10
42227;DHT22;27892;52.378;13.122;2023-05-21T02:46:39;17.50;68.00
42227;DHT22;27892;52.378;13.122;2023-05-21T02:49:24;17.50;68.20
42227;DHT22;27892;52.378;13.122;2023-05-21T02:52:08;17.50;69.00
42227;DHT22;27892;52.378;13.122;2023-05-21T02:54:53;17.50;69.80
42227;DHT22;27892;52.378;13.122;2023-05-21T02:57:37;17.60;70.70
42227;DHT22;27892;52.378;13.122;2023-05-21T03:00:21;17.70;70.90
42227;DHT22;27892;52.378;13.122;2023-05-21T03:03:05;17.70;71.10
42227;DHT22;27892;52.378;13.122;2023-05-21T03:05:50;17.80;71.00
42227;DHT22;27892;52.378;13.122;2023-05-21T03:08:34;17.80;71.60
42227;DHT22;27892;52.378;13.122;2023-05-21T03:11:20;17.80;71.70
42227;DHT22;27892;52.378;13.122;2023-05-21T03:14:05;17.80;71.80
42227;DHT22;27892;52.378;13.122;2023-05-21T03:16:50;17.80;72.20
42227;DHT22;27892;52.378;13.122;2023-05-21T03:19:35;17.80;72.40
42227;DHT22;27892;52.378;13.122;2023-05-21T03:22:19;17.90;72.70
42227;DHT22;27892;52.378;13.122;2023-05-21T03:25:05;17.90;72.70
42227;DHT22;27892;52.378;13.122;2023-05-21T03:27:49;18.00;72.80
42227;DHT22;27892;52.378;13.122;2023-05-21T03:30:33;18.00;72.90
42227;DHT22;27892;52.378;13.122;2023-05-21T03:33:18;18.00;72.90
42227;DHT22;27892;52.378;13.122;2023-05-21T03:36:03;18.00;73.00
42227;DHT22;27892;52.378;13.122;2023-05-21T03:38:47;18.10;73.10
42227;DHT22;27892;52.378;13.122;2023-05-21T03:41:32;18.10;73.20
42227;DHT22;27892;52.378;13.122;2023-05-21T03:44:16;18.20;73.10
42227;DHT22;27892;52.378;13.122;2023-05-21T03:47:00;18.20;73.80
42227;DHT22;27892;52.378;13.122;2023-05-21T03:49:44;18.20;73.60
42227;DHT22;27892;52.378;13.122;2023-05-21T03:52:29;18.20;73.70
42227;DHT22;27892;52.378;13.122;2023-05-21T03:55:13;18.30;73.50
42227;DHT22;27892;52.378;13.122;2023-05-21T03:57:57;18.40;73.20
42227;DHT22;27892;52.378;13.122;2023-05-21T04:00:41;18.30;73.60
42227;DHT22;27892;52.378;13.122;2023-05-21T04:03:26;18.30;73.60
42227;DHT22;27892;52.378;13.122;2023-05-21T04:06:10;18.40;73.60
42227;DHT22;27892;52.378;13.122;2023-05-21T04:08:54;18.40;74.10
42227;DHT22;27892;52.378;13.122;2023-05-21T04:11:38;18.50;74.00
42227;DHT22;27892;52.378;13.122;2023-05-21T04:14:23;18.70;73.60
42227;DHT22;27892;52.378;13.122;2023-05-21T04:17:07;18.80;73.50
42227;DHT22;27892;52.378;13.122;2023-05-21T04:19:51;18.80;72.80
42227;DHT22;27892;52.378;13.122;2023-05-21T04:22:36;18.80;72.70
42227;DHT22;27892;52.378;13.122;2023-05-21T04:25:21;19.00;73.40
42227;DHT22;27892;52.378;13.122;2023-05-21T04:28:06;19.10;72.50
42227;DHT22;27892;52.378;13.122;2023-05-21T04:30:50;19.20;72.40
42227;DHT22;27892;52.378;13.122;2023-05-21T04:33:35;19.40;72.50
42227;DHT22;27892;52.378;13.122;2023-05-21T04:36:19;19.50;71.80
42227;DHT22;27892;52.378;13.122;2023-05-21T04:39:03;19.50;70.50
42227;DHT22;27892;52.378;13.122;2023-05-21T04:41:49;19.50;71.30
42227;DHT22;27892;52.378;13.122;2023-05-21T04:44:33;19.60;71.80
42227;DHT22;27892;52.378;13.122;2023-05-21T04:47:18;19.70;70.90
42227;DHT22;27892;52.378;13.122;2023-05-21T04:50:02;19.80;70.50
42227;DHT22;27892;52.378;13.122;2023-05-21T04:52:47;19.90;70.80
42227;DHT22;27892;52.378;13.122;2023-05-21T04:55:31;20.00;70.70
42227;DHT22;27892;52.378;13.122;2023-05-21T04:58:16;20.10;69.80
42227;DHT22;27892;52.378;13.122;2023-05-21T05:01:01;20.10;69.90
42227;DHT22;27892;52.378;13.122;2023-05-21T05:03:47;20.20;69.50
42227;DHT22;27892;52.378;13.122;2023-05-21T05:06:31;20.30;69.40
42227;DHT22;27892;52.378;13.122;2023-05-21T05:09:15;20.50;69.50
42227;DHT22;27892;52.378;13.122;2023-05-21T05:11:59;20.50;68.60
42227;DHT22;27892;52.378;13.122;2023-05-21T05:14:44;20.60;68.50
42227;DHT22;27892;52.378;13.122;2023-05-21T05:17:29;20.70;68.00
42227;DHT22;27892;52.378;13.122;2023-05-21T05:20:13;20.70;68.20
42227;DHT22;27892;52.378;13.122;2023-05-21T05:22:56;20.80;68.30
42227;DHT22;27892;52.378;13.122;2023-05-21T05:25:41;21.00;67.90
42227;DHT22;27892;52.378;13.122;2023-05-21T05:28:25;21.00;67.60
42227;DHT22;27892;52.378;13.122;2023-05-21T05:31:09;21.00;67.30
42227;DHT22;27892;52.378;13.122;2023-05-21T05:33:54;20.90;67.60
42227;DHT22;27892;52.378;13.122;2023-05-21T05:36:38;21.00;67.90
42227;DHT22;27892;52.378;13.122;2023-05-21T05:39:22;21.00;67.10
42227;DHT22;27892;52.378;13.122;2023-05-21T05:42:06;21.00;67.30
42227;DHT22;27892;52.378;13.122;2023-05-21T05:44:50;21.00;68.00
42227;DHT22;27892;52.378;13.122;2023-05-21T05:47:34;21.20;67.90
42227;DHT22;27892;52.378;13.122;2023-05-21T05:50:18;21.00;66.80
42227;DHT22;27892;52.378;13.122;2023-05-21T05:53:03;21.00;68.10
42227;DHT22;27892;52.378;13.122;2023-05-21T05:55:48;21.10;68.00
42227;DHT22;27892;52.378;13.122;2023-05-21T05:58:32;21.20;67.40
42227;DHT22;27892;52.378;13.122;2023-05-21T06:01:16;21.40;67.80
42227;DHT22;27892;52.378;13.122;2023-05-21T06:04:00;21.50;67.10
42227;DHT22;27892;52.378;13.122;2023-05-21T06:06:44;21.50;66.80
42227;DHT22;27892;52.378;13.122;2023-05-21T06:09:28;21.70;67.00
42227;DHT22;27892;52.378;13.122;2023-05-21T06:12:12;21.80;65.80
42227;DHT22;27892;52.378;13.122;2023-05-21T06:14:59;22.00;64.80
42227;DHT22;27892;52.378;13.122;2023-05-21T06:17:43;22.30;64.40
42227;DHT22;27892;52.378;13.122;2023-05-21T06:20:28;23.10;64.00
42227;DHT22;27892;52.378;13.122;2023-05-21T06:23:12;23.80;61.00
42227;DHT22;27892;52.378;13.122;2023-05-21T06:25:57;24.50;60.40
42227;DHT22;27892;52.378;13.122;2023-05-21T06:28:41;25.10;57.70
42227;DHT22;27892;52.378;13.122;2023-05-21T06:31:25;25.70;56.00
42227;DHT22;27892;52.378;13.122;2023-05-21T06:34:09;26.00;53.90
42227;DHT22;27892;52.378;13.122;2023-05-21T06:36:54;27.30;54.70
42227;DHT22;27892;52.378;13.122;2023-05-21T06:39:39;28.20;51.00
42227;DHT22;27892;52.378;13.122;2023-05-21T06:42:23;29.00;47.20
42227;DHT22;27892;52.378;13.122;2023-05-21T06:45:07;28.90;45.60
42227;DHT22;27892;52.378;13.122;2023-05-21T06:47:51;29.30;45.10
42227;DHT22;27892;52.378;13.122;2023-05-21T06:50:35;29.80;45.20
42227;DHT22;27892;52.378;13.122;2023-05-21T06:53:20;30.10;44.10
42227;DHT22;27892;52.378;13.122;2023-05-21T06:56:04;31.50;44.10
42227;DHT22;27892;52.378;13.122;2023-05-21T06:58:48;32.60;40.00
42227;DHT22;27892;52.378;13.122;2023-05-21T07:01:33;33.40;39.20
42227;DHT22;27892;52.378;13.122;2023-05-21T07:04:17;33.50;35.80
42227;DHT22;27892;52.378;13.122;2023-05-21T07:07:01;33.30;37.50
42227;DHT22;27892;52.378;13.122;2023-05-21T07:09:49;34.10;37.00
42227;DHT22;27892;52.378;13.122;2023-05-21T07:12:33;33.70;34.40
42227;DHT22;27892;52.378;13.122;2023-05-21T07:15:18;34.40;36.70
42227;DHT22;27892;52.378;13.122;2023-05-21T07:18:02;34.70;33.60
42227;DHT22;27892;52.378;13.122;2023-05-21T07:20:47;33.60;35.90
42227;DHT22;27892;52.378;13.122;2023-05-21T07:23:32;33.30;34.70
42227;DHT22;27892;52.378;13.122;2023-05-21T07:26:16;33.40;36.50
42227;DHT22;27892;52.378;13.122;2023-05-21T07:29:00;32.70;36.50
42227;DHT22;27892;52.378;13.122;2023-05-21T07:31:44;32.40;36.30
42227;DHT22;27892;52.378;13.122;2023-05-21T07:34:28;31.90;37.90
42227;DHT22;27892;52.378;13.122;2023-05-21T07:37:12;31.60;38.20
42227;DHT22;27892;52.378;13.122;2023-05-21T07:39:57;30.90;37.10
42227;DHT22;27892;52.378;13.122;2023-05-21T07:42:41;30.30;40.80
42227;DHT22;27892;52.378;13.122;2023-05-21T07:45:26;30.60;39.70
42227;DHT22;27892;52.378;13.122;2023-05-21T07:48:10;30.20;39.90
42227;DHT22;27892;52.378;13.122;2023-05-21T07:50:55;30.20;42.20
42227;DHT22;27892;52.378;13.122;2023-05-21T07:53:41;30.40;41.60
42227;DHT22;27892;52.378;13.122;2023-05-21T07:56:25;30.50;40.80
42227;DHT22;27892;52.378;13.122;2023-05-21T07:59:10;30.20;39.40
42227;DHT22;27892;52.378;13.122;2023-05-21T08:01:54;30.00;40.60
42227;DHT22;27892;52.378;13.122;2023-05-21T08:04:38;30.30;42.30
42227;DHT22;27892;52.378;13.122;2023-05-21T08:07:23;30.80;40.80
42227;DHT22;27892;52.378;13.122;2023-05-21T08:10:07;30.70;41.10
42227;DHT22;27892;52.378;13.122;2023-05-21T08:12:52;30.60;40.90
42227;DHT22;27892;52.378;13.122;2023-05-21T08:15:36;29.80;41.50
42227;DHT22;27892;52.378;13.122;2023-05-21T08:18:20;29.40;41.50
42227;DHT22;27892;52.378;13.122;2023-05-21T08:21:06;29.20;42.50
42227;DHT22;27892;52.378;13.122;2023-05-21T08:23:51;29.10;42.10
42227;DHT22;27892;52.378;13.122;2023-05-21T08:26:35;29.30;42.50
42227;DHT22;27892;52.378;13.122;2023-05-21T08:29:19;29.90;41.70
42227;DHT22;27892;52.378;13.122;2023-05-21T08:32:04;30.00;42.40
42227;DHT22;27892;52.378;13.122;2023-05-21T08:34:51;29.70;41.40
42227;DHT22;27892;52.378;13.122;2023-05-21T08:37:36;29.10;42.60
42227;DHT22;27892;52.378;13.122;2023-05-21T08:40:20;29.30;43.90
42227;DHT22;27892;52.378;13.122;2023-05-21T08:43:04;29.20;42.50
42227;DHT22;27892;52.378;13.122;2023-05-21T08:45:53;28.90;42.90
42227;DHT22;27892;52.378;13.122;2023-05-21T08:48:38;29.00;43.20
42227;DHT22;27892;52.378;13.122;2023-05-21T08:51:22;29.10;43.80
42227;DHT22;27892;52.378;13.122;2023-05-21T08:54:06;29.30;43.30
42227;DHT22;27892;52.378;13.122;2023-05-21T08:56:52;29.50;43.80
42227;DHT22;27892;52.378;13.122;2023-05-21T08:59:36;29.90;42.30
42227;DHT22;27892;52.378;13.122;2023-05-21T09:02:22;30.00;41.90
42227;DHT22;27892;52.378;13.122;2023-05-21T09:05:08;29.60;41.30
42227;DHT22;27892;52.378;13.122;2023-05-21T09:08:05;29.30;42.50
42227;DHT22;27892;52.378;13.122;2023-05-21T09:10:51;29.00;43.50
42227;DHT22;27892;52.378;13.122;2023-05-21T09:13:37;29.40;42.90
42227;DHT22;27892;52.378;13.122;2023-05-21T09:16:21;29.40;41.80
42227;DHT22;27892;52.378;13.122;2023-05-21T09:19:05;29.30;42.90
42227;DHT22;27892;52.378;13.122;2023-05-21T09:21:51;29.50;43.80
42227;DHT22;27892;52.378;13.122;2023-05-21T09:24:38;29.70;42.40
42227;DHT22;27892;52.378;13.122;2023-05-21T09:27:23;29.90;42.00
42227;DHT22;27892;52.378;13.122;2023-05-21T09:30:12;29.80;42.60
42227;DHT22;27892;52.378;13.122;2023-05-21T09:32:58;30.20;41.40
42227;DHT22;27892;52.378;13.122;2023-05-21T09:35:45;30.40;40.60
42227;DHT22;27892;52.378;13.122;2023-05-21T09:38:32;30.60;41.40
42227;DHT22;27892;52.378;13.122;2023-05-21T09:41:18;30.60;41.20
42227;DHT22;27892;52.378;13.122;2023-05-21T09:44:03;30.90;40.80
42227;DHT22;27892;52.378;13.122;2023-05-21T09:46:47;31.20;40.70
42227;DHT22;27892;52.378;13.122;2023-05-21T09:49:31;31.50;39.00
42227;DHT22;27892;52.378;13.122;2023-05-21T09:52:25;31.60;37.80
42227;DHT22;27892;52.378;13.122;2023-05-21T09:55:12;31.70;37.60
42227;DHT22;27892;52.378;13.122;2023-05-21T09:57:57;31.80;37.40
42227;DHT22;27892;52.378;13.122;2023-05-21T10:00:41;31.70;37.30
42227;DHT22;27892;52.378;13.122;2023-05-21T10:03:26;31.50;36.90
42227;DHT22;27892;52.378;13.122;2023-05-21T10:06:12;31.40;36.00
42227;DHT22;27892;52.378;13.122;2023-05-21T10:08:59;31.40;35.60
42227;DHT22;27892;52.378;13.122;2023-05-21T10:11:46;31.80;37.50
42227;DHT22;27892;52.378;13.122;2023-05-21T10:14:33;31.80;35.60
42227;DHT22;27892;52.378;13.122;2023-05-21T10:17:18;31.90;34.70
42227;DHT22;27892;52.378;13.122;2023-05-21T10:20:02;31.40;35.60
42227;DHT22;27892;52.378;13.122;2023-05-21T10:22:49;31.60;36.00
42227;DHT22;27892;52.378;13.122;2023-05-21T10:25:34;31.70;34.70
42227;DHT22;27892;52.378;13.122;2023-05-21T10:28:19;31.60;35.50
42227;DHT22;27892;52.378;13.122;2023-05-21T10:31:03;31.70;34.40
42227;DHT22;27892;52.378;13.122;2023-05-21T10:33:48;31.50;34.80
42227;DHT22;27892;52.378;13.122;2023-05-21T10:36:33;31.10;34.20
42227;DHT22;27892;52.378;13.122;2023-05-21T10:39:19;30.70;34.70
42227;DHT22;27892;52.378;13.122;2023-05-21T10:45:37;30.00;36.10
42227;DHT22;27892;52.378;13.122;2023-05-21T10:48:46;29.90;37.20
42227;DHT22;27892;52.378;13.122;2023-05-21T10:58:39;30.70;34.70
42227;DHT22;27892;52.378;13.122;2023-05-21T11:01:00;30.90;35.20
42227;DHT22;27892;52.378;13.122;2023-05-21T11:03:46;31.60;34.60
42227;DHT22;27892;52.378;13.122;2023-05-21T11:06:31;31.90;34.80
42227;DHT22;27892;52.378;13.122;2023-05-21T11:09:16;32.30;32.90
42227;DHT22;27892;52.378;13.122;2023-05-21T11:12:00;32.10;32.90
42227;DHT22;27892;52.378;13.122;2023-05-21T11:14:56;32.10;32.90
42227;DHT22;27892;52.378;13.122;2023-05-21T11:17:40;31.60;33.90
42227;DHT22;27892;52.378;13.122;2023-05-21T11:20:33;31.60;33.50
42227;DHT22;27892;52.378;13.122;2023-05-21T11:23:19;31.60;32.80
42227;DHT22;27892;52.378;13.122;2023-05-21T11:26:05;31.90;33.70
42227;DHT22;27892;52.378;13.122;2023-05-21T11:29:05;32.10;31.70
42227;DHT22;27892;52.378;13.122;2023-05-21T11:31:59;32.40;33.10
42227;DHT22;27892;52.378;13.122;2023-05-21T11:34:47;32.70;32.00
42227;DHT22;27892;52.378;13.122;2023-05-21T11:37:33;32.10;31.60
42227;DHT22;27892;52.378;13.122;2023-05-21T11:43:05;32.30;31.80
42227;DHT22;27892;52.378;13.122;2023-05-21T11:45:51;32.90;31.90
42227;DHT22;27892;52.378;13.122;2023-05-21T11:48:36;32.70;31.40
42227;DHT22;27892;52.378;13.122;2023-05-21T11:51:22;32.90;31.80
42227;DHT22;27892;52.378;13.122;2023-05-21T11:54:11;32.90;30.90
42227;DHT22;27892;52.378;13.122;2023-05-21T11:56:56;32.90;30.50
42227;DHT22;27892;52.378;13.122;2023-05-21T11:59:40;32.90;30.00
42227;DHT22;27892;52.378;13.122;2023-05-21T12:02:26;32.60;30.70
42227;DHT22;27892;52.378;13.122;2023-05-21T12:05:13;32.80;31.10
42227;DHT22;27892;52.378;13.122;2023-05-21T12:07:58;32.50;30.40
42227;DHT22;27892;52.378;13.122;2023-05-21T12:10:42;32.40;30.50
42227;DHT22;27892;52.378;13.122;2023-05-21T12:13:27;32.70;32.00
42227;DHT22;27892;52.378;13.122;2023-05-21T12:16:13;32.50;29.90
42227;DHT22;27892;52.378;13.122;2023-05-21T12:18:58;32.40;31.00
42227;DHT22;27892;52.378;13.122;2023-05-21T12:21:42;32.30;31.50
42227;DHT22;27892;52.378;13.122;2023-05-21T12:24:26;32.30;30.80
42227;DHT22;27892;52.378;13.122;2023-05-21T12:27:12;31.80;31.10
42227;DHT22;27892;52.378;13.122;2023-05-21T12:29:56;31.70;32.70
42227;DHT22;27892;52.378;13.122;2023-05-21T12:32:42;31.80;31.50
42227;DHT22;27892;52.378;13.122;2023-05-21T12:35:29;31.70;31.50
42227;DHT22;27892;52.378;13.122;2023-05-21T12:38:14;31.90;31.60
42227;DHT22;27892;52.378;13.122;2023-05-21T12:41:03;32.10;32.20
42227;DHT22;27892;52.378;13.122;2023-05-21T12:43:49;32.30;31.40
42227;DHT22;27892;52.378;13.122;2023-05-21T12:46:35;32.60;31.70
42227;DHT22;27892;52.378;13.122;2023-05-21T12:49:33;32.60;30.20
42227;DHT22;27892;52.378;13.122;2023-05-21T12:52:18;32.20;30.30
42227;DHT22;27892;52.378;13.122;2023-05-21T12:55:06;31.90;30.70
42227;DHT22;27892;52.378;13.122;2023-05-21T12:58:02;31.60;31.40
42227;DHT22;27892;52.378;13.122;2023-05-21T13:00:53;31.90;33.50
42227;DHT22;27892;52.378;13.122;2023-05-21T13:03:41;32.30;31.50
42227;DHT22;27892;52.378;13.122;2023-05-21T13:06:25;32.30;30.20
42227;DHT22;27892;52.378;13.122;2023-05-21T13:09:09;32.20;30.40
42227;DHT22;27892;52.378;13.122;2023-05-21T13:11:54;32.10;31.00
42227;DHT22;27892;52.378;13.122;2023-05-21T13:14:38;31.90;31.40
42227;DHT22;27892;52.378;13.122;2023-05-21T13:17:24;31.80;31.40
42227;DHT22;27892;52.378;13.122;2023-05-21T13:20:14;31.60;31.80
42227;DHT22;27892;52.378;13.122;2023-05-21T13:22:58;31.60;32.10
42227;DHT22;27892;52.378;13.122;2023-05-21T13:25:42;31.70;32.20
42227;DHT22;27892;52.378;13.122;2023-05-21T13:28:26;31.10;31.80
42227;DHT22;27892;52.378;13.122;2023-05-21T13:31:11;31.60;32.90
42227;DHT22;27892;52.378;13.122;2023-05-21T13:33:57;32.20;32.30
42227;DHT22;27892;52.378;13.122;2023-05-21T13:36:41;32.50;31.00
42227;DHT22;27892;52.378;13.122;2023-05-21T13:39:25;32.50;30.50
42227;DHT22;27892;52.378;13.122;2023-05-21T13:42:11;32.40;31.40
42227;DHT22;27892;52.378;13.122;2023-05-21T13:44:55;32.70;30.60
42227;DHT22;27892;52.378;13.122;2023-05-21T13:47:40;32.50;29.70
42227;DHT22;27892;52.378;13.122;2023-05-21T13:50:25;32.40;30.10
42227;DHT22;27892;52.378;13.122;2023-05-21T13:53:09;32.20;31.30
42227;DHT22;27892;52.378;13.122;2023-05-21T13:55:54;32.70;30.70
42227;DHT22;27892;52.378;13.122;2023-05-21T13:58:38;32.70;29.70
42227;DHT22;27892;52.378;13.122;2023-05-21T14:01:23;32.70;29.90
42227;DHT22;27892;52.378;13.122;2023-05-21T14:04:08;32.90;30.30
42227;DHT22;27892;52.378;13.122;2023-05-21T14:06:52;33.10;29.60
42227;DHT22;27892;52.378;13.122;2023-05-21T14:09:36;32.50;29.30
42227;DHT22;27892;52.378;13.122;2023-05-21T14:12:20;31.60;30.90
42227;DHT22;27892;52.378;13.122;2023-05-21T14:15:06;32.10;31.40
42227;DHT22;27892;52.378;13.122;2023-05-21T14:17:50;32.50;30.60
42227;DHT22;27892;52.378;13.122;2023-05-21T14:20:35;32.10;30.40
42227;DHT22;27892;52.378;13.122;2023-05-21T14:23:20;31.80;31.00
42227;DHT22;27892;52.378;13.122;2023-05-21T14:26:04;31.40;31.30
42227;DHT22;27892;52.378;13.122;2023-05-21T14:28:48;31.00;31.80
42227;DHT22;27892;52.378;13.122;2023-05-21T14:31:33;30.80;32.70
42227;DHT22;27892;52.378;13.122;2023-05-21T14:34:17;31.20;32.00
42227;DHT22;27892;52.378;13.122;2023-05-21T14:37:01;31.10;31.80
42227;DHT22;27892;52.378;13.122;2023-05-21T14:39:45;31.30;32.20
42227;DHT22;27892;52.378;13.122;2023-05-21T14:42:29;31.20;31.50
42227;DHT22;27892;52.378;13.122;2023-05-21T14:45:14;30.90;31.50
42227;DHT22;27892;52.378;13.122;2023-05-21T14:47:58;31.10;31.80
42227;DHT22;27892;52.378;13.122;2023-05-21T14:50:42;31.20;32.20
42227;DHT22;27892;52.378;13.122;2023-05-21T14:53:26;31.50;31.60
42227;DHT22;27892;52.378;13.122;2023-05-21T14:56:10;31.60;31.80
42227;DHT22;27892;52.378;13.122;2023-05-21T14:58:54;31.60;31.30
42227;DHT22;27892;52.378;13.122;2023-05-21T15:01:39;31.90;31.60
42227;DHT22;27892;52.378;13.122;2023-05-21T15:04:23;31.90;31.60
42227;DHT22;27892;52.378;13.122;2023-05-21T15:07:07;32.00;31.50
42227;DHT22;27892;52.378;13.122;2023-05-21T15:09:51;31.80;31.30
42227;DHT22;27892;52.378;13.122;2023-05-21T15:12:36;31.40;31.40
42227;DHT22;27892;52.378;13.122;2023-05-21T15:15:21;31.30;32.00
42227;DHT22;27892;52.378;13.122;2023-05-21T15:18:05;31.20;32.00
42227;DHT22;27892;52.378;13.122;2023-05-21T15:20:50;30.90;32.50
42227;DHT22;27892;52.378;13.122;2023-05-21T15:23:34;30.80;33.10
42227;DHT22;27892;52.378;13.122;2023-05-21T15:26:19;30.90;32.70
42227;DHT22;27892;52.378;13.122;2023-05-21T15:29:04;30.90;32.50
42227;DHT22;27892;52.378;13.122;2023-05-21T15:31:48;30.90;32.90
42227;DHT22;27892;52.378;13.122;2023-05-21T15:34:32;31.20;33.20
42227;DHT22;27892;52.378;13.122;2023-05-21T15:37:17;31.30;33.40
42227;DHT22;27892;52.378;13.122;2023-05-21T15:40:02;31.40;32.40
42227;DHT22;27892;52.378;13.122;2023-05-21T15:42:47;31.00;32.30
42227;DHT22;27892;52.378;13.122;2023-05-21T15:45:31;31.00;32.80
42227;DHT22;27892;52.378;13.122;2023-05-21T15:48:15;31.00;32.90
42227;DHT22;27892;52.378;13.122;2023-05-21T15:51:05;30.90;32.70
42227;DHT22;27892;52.378;13.122;2023-05-21T15:53:49;30.80;32.60
42227;DHT22;27892;52.378;13.122;2023-05-21T15:56:33;31.00;32.80
42227;DHT22;27892;52.378;13.122;2023-05-21T15:59:17;31.30;33.10
42227;DHT22;27892;52.378;13.122;2023-05-21T16:02:01;30.80;32.10
42227;DHT22;27892;52.378;13.122;2023-05-21T16:04:46;31.00;32.90
42227;DHT22;27892;52.378;13.122;2023-05-21T16:07:34;31.10;33.00
42227;DHT22;27892;52.378;13.122;2023-05-21T16:10:18;31.10;32.40
42227;DHT22;27892;52.378;13.122;2023-05-21T16:13:02;31.10;32.40
42227;DHT22;27892;52.378;13.122;2023-05-21T16:15:46;31.10;32.70
42227;DHT22;27892;52.378;13.122;2023-05-21T16:18:31;31.10;32.90
42227;DHT22;27892;52.378;13.122;2023-05-21T16:21:15;30.90;32.10
42227;DHT22;27892;52.378;13.122;2023-05-21T16:23:59;30.70;32.20
42227;DHT22;27892;52.378;13.122;2023-05-21T16:26:43;30.70;32.80
42227;DHT22;27892;52.378;13.122;2023-05-21T16:29:29;30.40;32.80
42227;DHT22;27892;52.378;13.122;2023-05-21T16:32:13;30.40;32.90
42227;DHT22;27892;52.378;13.122;2023-05-21T16:34:58;30.30;33.10
42227;DHT22;27892;52.378;13.122;2023-05-21T16:37:42;30.40;33.00
42227;DHT22;27892;52.378;13.122;2023-05-21T16:40:26;30.20;33.10
42227;DHT22;27892;52.378;13.122;2023-05-21T16:43:11;30.10;33.30
42227;DHT22;27892;52.378;13.122;2023-05-21T16:45:56;30.20;33.30
42227;DHT22;27892;52.378;13.122;2023-05-21T16:48:40;30.20;33.30
42227;DHT22;27892;52.378;13.122;2023-05-21T16:51:26;30.10;33.30
42227;DHT22;27892;52.378;13.122;2023-05-21T16:54:10;30.00;33.50
42227;DHT22;27892;52.378;13.122;2023-05-21T16:56:54;30.10;33.50
42227;DHT22;27892;52.378;13.122;2023-05-21T16:59:38;29.90;33.60
42227;DHT22;27892;52.378;13.122;2023-05-21T17:02:22;30.10;33.70
42227;DHT22;27892;52.378;13.122;2023-05-21T17:05:07;30.10;33.50
42227;DHT22;27892;52.378;13.122;2023-05-21T17:07:51;30.00;33.30
42227;DHT22;27892;52.378;13.122;2023-05-21T17:10:36;29.90;33.30
42227;DHT22;27892;52.378;13.122;2023-05-21T17:13:20;29.60;33.50
42227;DHT22;27892;52.378;13.122;2023-05-21T17:16:04;29.30;33.70
42227;DHT22;27892;52.378;13.122;2023-05-21T17:18:49;29.50;33.90